sensor_id;sensor_type;location;lat;lon;timestamp;P1;durP1;ratioP1;P2;durP2;ratioP2
43070;SDS011;36278;47.952;21.714;2022-11-20T00:03:31;32.37;;;22.57;;
43070;SDS011;36278;47.952;21.714;2022-11-20T00:06:07;32.27;;;22.20;;
43070;SDS011;36278;47.952;21.714;2022-11-20T00:08:34;38.83;;;24.37;;
43070;SDS011;36278;47.952;21.714;2022-11-20T00:11:06;32.53;;;23.27;;
43070;SDS011;36278;47.952;21.714;2022-11-20T00:13:34;32.30;;;20.90;;
43070;SDS011;36278;47.952;21.714;2022-11-20T00:16:01;34.90;;;23.23;;
43070;SDS011;36278;47.952;21.714;2022-11-20T00:18:29;34.93;;;22.27;;
43070;SDS011;36278;47.952;21.714;2022-11-20T00:21:04;31.97;;;21.70;;
43070;SDS011;36278;47.952;21.714;2022-11-20T00:23:35;31.70;;;20.80;;
43070;SDS011;36278;47.952;21.714;2022-11-20T00:26:03;35.53;;;22.27;;
43070;SDS011;36278;47.952;21.714;2022-11-20T00:28:29;33.20;;;21.60;;
43070;SDS011;36278;47.952;21.714;2022-11-20T00:31:05;37.50;;;24.73;;
43070;SDS011;36278;47.952;21.714;2022-11-20T00:33:33;35.10;;;22.80;;
43070;SDS011;36278;47.952;21.714;2022-11-20T00:36:03;35.23;;;22.57;;
43070;SDS011;36278;47.952;21.714;2022-11-20T00:38:31;36.30;;;23.13;;
43070;SDS011;36278;47.952;21.714;2022-11-20T00:41:01;37.43;;;20.77;;
43070;SDS011;36278;47.952;21.714;2022-11-20T00:43:32;41.47;;;27.07;;
43070;SDS011;36278;47.952;21.714;2022-11-20T00:46:06;43.07;;;29.00;;
43070;SDS011;36278;47.952;21.714;2022-11-20T00:48:36;32.13;;;21.50;;
43070;SDS011;36278;47.952;21.714;2022-11-20T00:51:01;34.60;;;22.20;;
43070;SDS011;36278;47.952;21.714;2022-11-20T00:53:27;34.43;;;22.63;;
43070;SDS011;36278;47.952;21.714;2022-11-20T00:58:23;34.13;;;21.77;;
43070;SDS011;36278;47.952;21.714;2022-11-20T01:00:49;31.47;;;21.17;;
43070;SDS011;36278;47.952;21.714;2022-11-20T01:03:15;35.53;;;23.07;;
43070;SDS011;36278;47.952;21.714;2022-11-20T01:05:42;33.47;;;22.40;;
43070;SDS011;36278;47.952;21.714;2022-11-20T01:08:08;36.63;;;23.37;;
43070;SDS011;36278;47.952;21.714;2022-11-20T01:10:33;33.17;;;21.50;;
43070;SDS011;36278;47.952;21.714;2022-11-20T01:12:59;33.63;;;21.33;;
43070;SDS011;36278;47.952;21.714;2022-11-20T01:15:43;32.90;;;22.27;;
43070;SDS011;36278;47.952;21.714;2022-11-20T01:18:09;32.57;;;21.53;;
43070;SDS011;36278;47.952;21.714;2022-11-20T01:20:35;33.70;;;22.57;;
43070;SDS011;36278;47.952;21.714;2022-11-20T01:23:01;32.87;;;21.67;;
43070;SDS011;36278;47.952;21.714;2022-11-20T01:25:27;32.87;;;21.67;;
43070;SDS011;36278;47.952;21.714;2022-11-20T01:27:53;33.00;;;21.03;;
43070;SDS011;36278;47.952;21.714;2022-11-20T01:30:18;34.83;;;23.57;;
43070;SDS011;36278;47.952;21.714;2022-11-20T01:32:44;33.93;;;22.80;;
43070;SDS011;36278;47.952;21.714;2022-11-20T01:35:10;33.77;;;20.90;;
43070;SDS011;36278;47.952;21.714;2022-11-20T01:37:35;30.47;;;20.57;;
43070;SDS011;36278;47.952;21.714;2022-11-20T01:40:01;33.80;;;21.67;;
43070;SDS011;36278;47.952;21.714;2022-11-20T01:42:27;31.87;;;21.00;;
43070;SDS011;36278;47.952;21.714;2022-11-20T01:48:14;31.73;;;21.37;;
43070;SDS011;36278;47.952;21.714;2022-11-20T01:50:40;30.77;;;20.70;;
43070;SDS011;36278;47.952;21.714;2022-11-20T01:53:08;35.07;;;20.93;;
43070;SDS011;36278;47.952;21.714;2022-11-20T01:55:41;33.67;;;22.93;;
43070;SDS011;36278;47.952;21.714;2022-11-20T01:58:11;30.67;;;20.60;;
43070;SDS011;36278;47.952;21.714;2022-11-20T02:00:37;33.37;;;21.60;;
43070;SDS011;36278;47.952;21.714;2022-11-20T02:03:07;30.43;;;20.13;;
43070;SDS011;36278;47.952;21.714;2022-11-20T02:08:17;31.03;;;20.40;;
43070;SDS011;36278;47.952;21.714;2022-11-20T02:10:44;29.00;;;20.87;;
43070;SDS011;36278;47.952;21.714;2022-11-20T02:13:10;32.13;;;21.27;;
43070;SDS011;36278;47.952;21.714;2022-11-20T02:15:54;32.50;;;21.37;;
43070;SDS011;36278;47.952;21.714;2022-11-20T02:18:20;32.70;;;21.90;;
43070;SDS011;36278;47.952;21.714;2022-11-20T02:20:49;33.43;;;22.47;;
43070;SDS011;36278;47.952;21.714;2022-11-20T02:26:10;33.03;;;21.80;;
43070;SDS011;36278;47.952;21.714;2022-11-20T02:28:38;30.63;;;20.57;;
43070;SDS011;36278;47.952;21.714;2022-11-20T02:31:04;33.23;;;22.53;;
43070;SDS011;36278;47.952;21.714;2022-11-20T02:33:30;33.17;;;21.90;;
43070;SDS011;36278;47.952;21.714;2022-11-20T02:35:55;32.07;;;20.93;;
43070;SDS011;36278;47.952;21.714;2022-11-20T02:38:21;32.60;;;21.13;;
43070;SDS011;36278;47.952;21.714;2022-11-20T02:40:47;31.97;;;21.90;;
43070;SDS011;36278;47.952;21.714;2022-11-20T02:43:15;35.10;;;21.47;;
43070;SDS011;36278;47.952;21.714;2022-11-20T02:45:40;33.50;;;21.10;;
43070;SDS011;36278;47.952;21.714;2022-11-20T02:48:06;31.43;;;21.57;;
43070;SDS011;36278;47.952;21.714;2022-11-20T02:50:32;28.83;;;20.30;;
43070;SDS011;36278;47.952;21.714;2022-11-20T02:53:01;34.00;;;21.93;;
43070;SDS011;36278;47.952;21.714;2022-11-20T02:55:26;30.60;;;19.67;;
43070;SDS011;36278;47.952;21.714;2022-11-20T02:57:52;31.67;;;20.17;;
43070;SDS011;36278;47.952;21.714;2022-11-20T03:00:17;31.93;;;20.57;;
43070;SDS011;36278;47.952;21.714;2022-11-20T03:02:43;33.30;;;20.30;;
43070;SDS011;36278;47.952;21.714;2022-11-20T03:05:09;31.70;;;20.20;;
43070;SDS011;36278;47.952;21.714;2022-11-20T03:07:34;30.47;;;20.60;;
43070;SDS011;36278;47.952;21.714;2022-11-20T03:09:59;32.93;;;20.23;;
43070;SDS011;36278;47.952;21.714;2022-11-20T03:12:25;29.10;;;19.00;;
43070;SDS011;36278;47.952;21.714;2022-11-20T03:14:50;29.20;;;19.13;;
43070;SDS011;36278;47.952;21.714;2022-11-20T03:17:16;31.47;;;20.47;;
43070;SDS011;36278;47.952;21.714;2022-11-20T03:19:41;28.83;;;18.97;;
43070;SDS011;36278;47.952;21.714;2022-11-20T03:22:07;35.03;;;21.53;;
43070;SDS011;36278;47.952;21.714;2022-11-20T03:24:32;36.60;;;22.83;;
43070;SDS011;36278;47.952;21.714;2022-11-20T03:26:58;29.77;;;19.57;;
43070;SDS011;36278;47.952;21.714;2022-11-20T03:29:23;31.93;;;19.23;;
43070;SDS011;36278;47.952;21.714;2022-11-20T03:31:48;27.20;;;18.63;;
43070;SDS011;36278;47.952;21.714;2022-11-20T03:34:14;29.93;;;19.70;;
43070;SDS011;36278;47.952;21.714;2022-11-20T03:36:40;27.70;;;19.33;;
43070;SDS011;36278;47.952;21.714;2022-11-20T03:39:07;29.47;;;19.70;;
43070;SDS011;36278;47.952;21.714;2022-11-20T03:41:35;30.97;;;19.47;;
43070;SDS011;36278;47.952;21.714;2022-11-20T03:44:03;28.47;;;19.07;;
43070;SDS011;36278;47.952;21.714;2022-11-20T03:46:30;27.13;;;19.50;;
43070;SDS011;36278;47.952;21.714;2022-11-20T03:48:57;28.80;;;18.63;;
43070;SDS011;36278;47.952;21.714;2022-11-20T03:51:23;28.63;;;18.57;;
43070;SDS011;36278;47.952;21.714;2022-11-20T03:53:51;28.67;;;18.90;;
43070;SDS011;36278;47.952;21.714;2022-11-20T03:56:19;26.43;;;18.20;;
43070;SDS011;36278;47.952;21.714;2022-11-20T03:58:47;28.87;;;18.50;;
43070;SDS011;36278;47.952;21.714;2022-11-20T04:01:20;28.20;;;19.00;;
43070;SDS011;36278;47.952;21.714;2022-11-20T04:03:47;29.90;;;18.70;;
43070;SDS011;36278;47.952;21.714;2022-11-20T04:06:14;27.53;;;18.77;;
43070;SDS011;36278;47.952;21.714;2022-11-20T04:08:41;28.03;;;18.27;;
43070;SDS011;36278;47.952;21.714;2022-11-20T04:11:18;28.27;;;18.63;;
43070;SDS011;36278;47.952;21.714;2022-11-20T04:13:51;28.13;;;17.77;;
43070;SDS011;36278;47.952;21.714;2022-11-20T04:16:25;29.33;;;18.37;;
43070;SDS011;36278;47.952;21.714;2022-11-20T04:18:52;27.80;;;18.57;;
43070;SDS011;36278;47.952;21.714;2022-11-20T04:21:18;28.63;;;19.30;;
43070;SDS011;36278;47.952;21.714;2022-11-20T04:23:44;26.90;;;18.30;;
43070;SDS011;36278;47.952;21.714;2022-11-20T04:26:10;29.73;;;18.57;;
43070;SDS011;36278;47.952;21.714;2022-11-20T04:28:36;29.17;;;18.63;;
43070;SDS011;36278;47.952;21.714;2022-11-20T04:33:30;32.00;;;19.30;;
43070;SDS011;36278;47.952;21.714;2022-11-20T04:35:59;28.67;;;18.60;;
43070;SDS011;36278;47.952;21.714;2022-11-20T04:38:26;29.20;;;19.47;;
43070;SDS011;36278;47.952;21.714;2022-11-20T04:40:55;25.57;;;17.97;;
43070;SDS011;36278;47.952;21.714;2022-11-20T04:43:21;30.63;;;19.23;;
43070;SDS011;36278;47.952;21.714;2022-11-20T04:45:50;28.87;;;19.07;;
43070;SDS011;36278;47.952;21.714;2022-11-20T04:48:19;33.47;;;20.77;;
43070;SDS011;36278;47.952;21.714;2022-11-20T04:50:45;33.00;;;20.40;;
43070;SDS011;36278;47.952;21.714;2022-11-20T04:53:10;30.17;;;19.80;;
43070;SDS011;36278;47.952;21.714;2022-11-20T04:55:36;34.00;;;20.03;;
43070;SDS011;36278;47.952;21.714;2022-11-20T04:58:01;31.10;;;20.67;;
43070;SDS011;36278;47.952;21.714;2022-11-20T05:00:27;29.13;;;18.53;;
43070;SDS011;36278;47.952;21.714;2022-11-20T05:02:52;29.87;;;19.33;;
43070;SDS011;36278;47.952;21.714;2022-11-20T05:05:18;31.50;;;19.70;;
43070;SDS011;36278;47.952;21.714;2022-11-20T05:07:43;32.60;;;19.97;;
43070;SDS011;36278;47.952;21.714;2022-11-20T05:12:36;32.33;;;20.30;;
43070;SDS011;36278;47.952;21.714;2022-11-20T05:15:02;30.00;;;19.97;;
43070;SDS011;36278;47.952;21.714;2022-11-20T05:17:28;28.07;;;18.83;;
43070;SDS011;36278;47.952;21.714;2022-11-20T05:19:53;31.03;;;18.83;;
43070;SDS011;36278;47.952;21.714;2022-11-20T05:22:19;29.67;;;20.17;;
43070;SDS011;36278;47.952;21.714;2022-11-20T05:24:45;30.90;;;18.50;;
43070;SDS011;36278;47.952;21.714;2022-11-20T05:27:10;29.00;;;18.80;;
43070;SDS011;36278;47.952;21.714;2022-11-20T05:29:36;30.57;;;19.50;;
43070;SDS011;36278;47.952;21.714;2022-11-20T05:32:02;29.63;;;18.97;;
43070;SDS011;36278;47.952;21.714;2022-11-20T05:34:28;29.07;;;18.80;;
43070;SDS011;36278;47.952;21.714;2022-11-20T05:36:53;30.40;;;18.67;;
43070;SDS011;36278;47.952;21.714;2022-11-20T05:39:19;28.93;;;19.07;;
43070;SDS011;36278;47.952;21.714;2022-11-20T05:41:49;29.53;;;18.47;;
43070;SDS011;36278;47.952;21.714;2022-11-20T05:44:34;30.97;;;19.97;;
43070;SDS011;36278;47.952;21.714;2022-11-20T05:47:00;27.60;;;18.00;;
43070;SDS011;36278;47.952;21.714;2022-11-20T05:49:25;27.30;;;18.23;;
43070;SDS011;36278;47.952;21.714;2022-11-20T05:51:51;30.70;;;18.77;;
43070;SDS011;36278;47.952;21.714;2022-11-20T05:54:17;30.40;;;19.33;;
43070;SDS011;36278;47.952;21.714;2022-11-20T05:56:43;30.93;;;17.80;;
43070;SDS011;36278;47.952;21.714;2022-11-20T05:59:09;28.20;;;17.67;;
43070;SDS011;36278;47.952;21.714;2022-11-20T06:01:35;29.77;;;19.63;;
43070;SDS011;36278;47.952;21.714;2022-11-20T06:04:01;31.67;;;19.00;;
43070;SDS011;36278;47.952;21.714;2022-11-20T06:06:27;32.73;;;18.53;;
43070;SDS011;36278;47.952;21.714;2022-11-20T06:08:53;28.80;;;19.00;;
43070;SDS011;36278;47.952;21.714;2022-11-20T06:11:19;26.67;;;18.60;;
43070;SDS011;36278;47.952;21.714;2022-11-20T06:13:45;25.77;;;18.20;;
43070;SDS011;36278;47.952;21.714;2022-11-20T06:16:13;27.93;;;17.87;;
43070;SDS011;36278;47.952;21.714;2022-11-20T06:18:40;28.87;;;17.90;;
43070;SDS011;36278;47.952;21.714;2022-11-20T06:21:16;27.37;;;17.07;;
43070;SDS011;36278;47.952;21.714;2022-11-20T06:23:44;25.73;;;16.90;;
43070;SDS011;36278;47.952;21.714;2022-11-20T06:26:12;30.10;;;19.53;;
43070;SDS011;36278;47.952;21.714;2022-11-20T06:28:40;29.77;;;18.70;;
43070;SDS011;36278;47.952;21.714;2022-11-20T06:31:07;27.00;;;17.50;;
43070;SDS011;36278;47.952;21.714;2022-11-20T06:33:35;25.43;;;16.87;;
43070;SDS011;36278;47.952;21.714;2022-11-20T06:36:02;26.37;;;17.87;;
43070;SDS011;36278;47.952;21.714;2022-11-20T06:38:29;25.57;;;17.20;;
43070;SDS011;36278;47.952;21.714;2022-11-20T06:40:55;27.77;;;16.97;;
43070;SDS011;36278;47.952;21.714;2022-11-20T06:43:22;30.03;;;18.20;;
43070;SDS011;36278;47.952;21.714;2022-11-20T06:45:52;28.90;;;17.70;;
43070;SDS011;36278;47.952;21.714;2022-11-20T06:48:19;29.80;;;18.23;;
43070;SDS011;36278;47.952;21.714;2022-11-20T06:50:44;29.30;;;19.07;;
43070;SDS011;36278;47.952;21.714;2022-11-20T06:53:10;28.73;;;18.60;;
43070;SDS011;36278;47.952;21.714;2022-11-20T06:55:36;25.57;;;17.33;;
43070;SDS011;36278;47.952;21.714;2022-11-20T06:58:04;28.60;;;18.30;;
43070;SDS011;36278;47.952;21.714;2022-11-20T07:00:30;28.17;;;18.93;;
43070;SDS011;36278;47.952;21.714;2022-11-20T07:02:56;28.37;;;18.07;;
43070;SDS011;36278;47.952;21.714;2022-11-20T07:05:22;32.10;;;19.60;;
43070;SDS011;36278;47.952;21.714;2022-11-20T07:07:47;29.87;;;19.00;;
43070;SDS011;36278;47.952;21.714;2022-11-20T07:10:13;30.13;;;19.20;;
43070;SDS011;36278;47.952;21.714;2022-11-20T07:12:39;30.23;;;19.27;;
43070;SDS011;36278;47.952;21.714;2022-11-20T07:15:05;30.73;;;19.10;;
43070;SDS011;36278;47.952;21.714;2022-11-20T07:17:31;27.80;;;18.37;;
43070;SDS011;36278;47.952;21.714;2022-11-20T07:19:57;30.00;;;18.80;;
43070;SDS011;36278;47.952;21.714;2022-11-20T07:22:23;32.00;;;20.17;;
43070;SDS011;36278;47.952;21.714;2022-11-20T07:24:49;30.17;;;18.50;;
43070;SDS011;36278;47.952;21.714;2022-11-20T07:27:14;29.03;;;18.50;;
43070;SDS011;36278;47.952;21.714;2022-11-20T07:29:43;30.93;;;19.17;;
43070;SDS011;36278;47.952;21.714;2022-11-20T07:32:09;28.47;;;18.10;;
43070;SDS011;36278;47.952;21.714;2022-11-20T07:34:34;31.77;;;18.13;;
43070;SDS011;36278;47.952;21.714;2022-11-20T07:37:00;26.90;;;17.33;;
43070;SDS011;36278;47.952;21.714;2022-11-20T07:39:26;27.43;;;17.67;;
43070;SDS011;36278;47.952;21.714;2022-11-20T07:41:51;26.43;;;17.50;;
43070;SDS011;36278;47.952;21.714;2022-11-20T07:44:17;30.97;;;18.60;;
43070;SDS011;36278;47.952;21.714;2022-11-20T07:46:43;29.43;;;18.40;;
43070;SDS011;36278;47.952;21.714;2022-11-20T07:49:08;27.53;;;18.40;;
43070;SDS011;36278;47.952;21.714;2022-11-20T07:51:34;27.37;;;18.47;;
43070;SDS011;36278;47.952;21.714;2022-11-20T07:54:00;27.83;;;18.40;;
43070;SDS011;36278;47.952;21.714;2022-11-20T07:56:25;31.07;;;19.07;;
43070;SDS011;36278;47.952;21.714;2022-11-20T07:58:51;26.63;;;18.80;;
43070;SDS011;36278;47.952;21.714;2022-11-20T08:01:17;28.00;;;17.60;;
43070;SDS011;36278;47.952;21.714;2022-11-20T08:03:42;25.60;;;16.83;;
43070;SDS011;36278;47.952;21.714;2022-11-20T08:06:08;27.90;;;18.13;;
43070;SDS011;36278;47.952;21.714;2022-11-20T08:08:34;26.53;;;17.10;;
43070;SDS011;36278;47.952;21.714;2022-11-20T08:11:00;24.43;;;16.63;;
43070;SDS011;36278;47.952;21.714;2022-11-20T08:13:44;23.40;;;15.87;;
43070;SDS011;36278;47.952;21.714;2022-11-20T08:16:28;27.90;;;17.80;;
43070;SDS011;36278;47.952;21.714;2022-11-20T08:18:54;23.53;;;15.83;;
43070;SDS011;36278;47.952;21.714;2022-11-20T08:21:23;25.10;;;15.63;;
43070;SDS011;36278;47.952;21.714;2022-11-20T08:23:49;24.60;;;15.90;;
43070;SDS011;36278;47.952;21.714;2022-11-20T08:26:14;30.17;;;16.20;;
43070;SDS011;36278;47.952;21.714;2022-11-20T08:28:40;26.57;;;16.67;;
43070;SDS011;36278;47.952;21.714;2022-11-20T08:31:05;25.10;;;15.40;;
43070;SDS011;36278;47.952;21.714;2022-11-20T08:33:31;26.53;;;18.23;;
43070;SDS011;36278;47.952;21.714;2022-11-20T08:36:01;22.83;;;16.00;;
43070;SDS011;36278;47.952;21.714;2022-11-20T08:38:28;26.60;;;17.30;;
43070;SDS011;36278;47.952;21.714;2022-11-20T08:40:58;25.53;;;17.43;;
43070;SDS011;36278;47.952;21.714;2022-11-20T08:43:43;27.13;;;17.57;;
43070;SDS011;36278;47.952;21.714;2022-11-20T08:46:09;23.87;;;17.17;;
43070;SDS011;36278;47.952;21.714;2022-11-20T08:48:34;25.53;;;15.77;;
43070;SDS011;36278;47.952;21.714;2022-11-20T08:51:00;26.80;;;15.63;;
43070;SDS011;36278;47.952;21.714;2022-11-20T08:53:26;23.97;;;15.90;;
43070;SDS011;36278;47.952;21.714;2022-11-20T08:55:52;24.60;;;16.83;;
43070;SDS011;36278;47.952;21.714;2022-11-20T08:58:18;25.93;;;15.13;;
43070;SDS011;36278;47.952;21.714;2022-11-20T09:00:43;23.17;;;16.27;;
43070;SDS011;36278;47.952;21.714;2022-11-20T09:03:09;24.40;;;16.50;;
43070;SDS011;36278;47.952;21.714;2022-11-20T09:05:34;23.67;;;15.53;;
43070;SDS011;36278;47.952;21.714;2022-11-20T09:08:00;24.67;;;15.70;;
43070;SDS011;36278;47.952;21.714;2022-11-20T09:10:26;23.23;;;15.33;;
43070;SDS011;36278;47.952;21.714;2022-11-20T09:12:52;22.23;;;15.00;;
43070;SDS011;36278;47.952;21.714;2022-11-20T09:15:18;23.53;;;14.77;;
43070;SDS011;36278;47.952;21.714;2022-11-20T09:18:17;21.53;;;15.23;;
43070;SDS011;36278;47.952;21.714;2022-11-20T09:20:36;23.57;;;14.97;;
43070;SDS011;36278;47.952;21.714;2022-11-20T09:23:01;24.50;;;14.93;;
43070;SDS011;36278;47.952;21.714;2022-11-20T09:25:27;27.93;;;17.07;;
43070;SDS011;36278;47.952;21.714;2022-11-20T09:27:56;24.00;;;16.50;;
43070;SDS011;36278;47.952;21.714;2022-11-20T09:30:22;24.13;;;16.20;;
43070;SDS011;36278;47.952;21.714;2022-11-20T09:32:48;24.20;;;15.53;;
43070;SDS011;36278;47.952;21.714;2022-11-20T09:35:13;24.67;;;16.77;;
43070;SDS011;36278;47.952;21.714;2022-11-20T09:37:39;22.90;;;14.97;;
43070;SDS011;36278;47.952;21.714;2022-11-20T09:40:05;22.80;;;14.30;;
43070;SDS011;36278;47.952;21.714;2022-11-20T09:42:34;21.10;;;13.47;;
43070;SDS011;36278;47.952;21.714;2022-11-20T09:56:11;21.53;;;12.87;;
43070;SDS011;36278;47.952;21.714;2022-11-20T09:58:44;16.60;;;11.63;;
43070;SDS011;36278;47.952;21.714;2022-11-20T10:01:16;17.60;;;12.57;;
43070;SDS011;36278;47.952;21.714;2022-11-20T10:06:34;15.73;;;11.40;;
43070;SDS011;36278;47.952;21.714;2022-11-20T10:20:28;14.57;;;10.77;;
43070;SDS011;36278;47.952;21.714;2022-11-20T10:26:04;17.37;;;11.23;;
43070;SDS011;36278;47.952;21.714;2022-11-20T10:28:46;14.80;;;10.70;;
43070;SDS011;36278;47.952;21.714;2022-11-20T10:31:38;16.57;;;11.67;;
43070;SDS011;36278;47.952;21.714;2022-11-20T10:34:30;14.77;;;10.60;;
43070;SDS011;36278;47.952;21.714;2022-11-20T10:37:06;14.93;;;10.10;;
43070;SDS011;36278;47.952;21.714;2022-11-20T10:40:18;19.07;;;10.90;;
43070;SDS011;36278;47.952;21.714;2022-11-20T10:43:32;16.53;;;11.23;;
43070;SDS011;36278;47.952;21.714;2022-11-20T10:45:36;18.47;;;11.87;;
43070;SDS011;36278;47.952;21.714;2022-11-20T10:48:19;16.10;;;11.00;;
43070;SDS011;36278;47.952;21.714;2022-11-20T11:02:14;17.00;;;11.30;;
43070;SDS011;36278;47.952;21.714;2022-11-20T11:04:48;14.02;;;10.15;;
43070;SDS011;36278;47.952;21.714;2022-11-20T11:07:20;14.87;;;10.73;;
43070;SDS011;36278;47.952;21.714;2022-11-20T11:09:54;15.50;;;10.57;;
43070;SDS011;36278;47.952;21.714;2022-11-20T11:12:22;16.80;;;11.07;;
43070;SDS011;36278;47.952;21.714;2022-11-20T11:14:51;13.47;;;10.40;;
43070;SDS011;36278;47.952;21.714;2022-11-20T11:17:24;16.20;;;11.43;;
43070;SDS011;36278;47.952;21.714;2022-11-20T11:20:05;14.87;;;10.23;;
43070;SDS011;36278;47.952;21.714;2022-11-20T11:22:43;14.80;;;10.67;;
43070;SDS011;36278;47.952;21.714;2022-11-20T11:25:21;17.47;;;11.93;;
43070;SDS011;36278;47.952;21.714;2022-11-20T11:27:50;18.63;;;11.33;;
43070;SDS011;36278;47.952;21.714;2022-11-20T11:30:18;17.73;;;12.30;;
43070;SDS011;36278;47.952;21.714;2022-11-20T11:32:45;16.90;;;11.40;;
43070;SDS011;36278;47.952;21.714;2022-11-20T11:35:33;16.03;;;12.30;;
43070;SDS011;36278;47.952;21.714;2022-11-20T11:38:10;18.90;;;12.30;;
43070;SDS011;36278;47.952;21.714;2022-11-20T11:40:53;15.63;;;11.95;;
43070;SDS011;36278;47.952;21.714;2022-11-20T11:43:21;17.03;;;11.53;;
43070;SDS011;36278;47.952;21.714;2022-11-20T11:46:30;14.33;;;11.17;;
43070;SDS011;36278;47.952;21.714;2022-11-20T11:51:50;17.63;;;11.73;;
43070;SDS011;36278;47.952;21.714;2022-11-20T11:54:28;14.53;;;11.20;;
43070;SDS011;36278;47.952;21.714;2022-11-20T11:56:55;15.55;;;11.60;;
43070;SDS011;36278;47.952;21.714;2022-11-20T11:59:32;17.97;;;11.93;;
43070;SDS011;36278;47.952;21.714;2022-11-20T12:02:19;17.10;;;12.00;;
43070;SDS011;36278;47.952;21.714;2022-11-20T12:04:54;15.47;;;11.93;;
43070;SDS011;36278;47.952;21.714;2022-11-20T12:07:31;18.77;;;13.00;;
43070;SDS011;36278;47.952;21.714;2022-11-20T12:09:59;16.80;;;11.67;;
43070;SDS011;36278;47.952;21.714;2022-11-20T12:12:31;16.43;;;11.53;;
43070;SDS011;36278;47.952;21.714;2022-11-20T12:15:02;16.70;;;12.00;;
43070;SDS011;36278;47.952;21.714;2022-11-20T12:17:29;18.23;;;11.80;;
43070;SDS011;36278;47.952;21.714;2022-11-20T12:19:56;14.73;;;11.83;;
43070;SDS011;36278;47.952;21.714;2022-11-20T12:30:21;19.50;;;13.47;;
43070;SDS011;36278;47.952;21.714;2022-11-20T12:45:06;19.57;;;13.40;;
43070;SDS011;36278;47.952;21.714;2022-11-20T12:50:17;22.77;;;15.77;;
43070;SDS011;36278;47.952;21.714;2022-11-20T12:52:48;20.07;;;14.13;;
43070;SDS011;36278;47.952;21.714;2022-11-20T12:55:42;20.80;;;14.80;;
43070;SDS011;36278;47.952;21.714;2022-11-20T12:58:25;22.43;;;15.07;;
43070;SDS011;36278;47.952;21.714;2022-11-20T13:01:06;20.10;;;14.13;;
43070;SDS011;36278;47.952;21.714;2022-11-20T13:06:58;21.13;;;15.20;;
43070;SDS011;36278;47.952;21.714;2022-11-20T13:09:26;20.07;;;14.27;;
43070;SDS011;36278;47.952;21.714;2022-11-20T13:12:04;20.97;;;14.90;;
43070;SDS011;36278;47.952;21.714;2022-11-20T13:17:13;22.27;;;15.90;;
43070;SDS011;36278;47.952;21.714;2022-11-20T13:19:51;20.43;;;14.53;;
43070;SDS011;36278;47.952;21.714;2022-11-20T13:22:29;20.67;;;13.23;;
43070;SDS011;36278;47.952;21.714;2022-11-20T13:25:24;21.67;;;14.20;;
43070;SDS011;36278;47.952;21.714;2022-11-20T13:27:59;17.40;;;12.10;;
43070;SDS011;36278;47.952;21.714;2022-11-20T13:30:48;17.90;;;12.87;;
43070;SDS011;36278;47.952;21.714;2022-11-20T13:33:31;17.30;;;12.73;;
43070;SDS011;36278;47.952;21.714;2022-11-20T13:36:04;20.63;;;13.67;;
43070;SDS011;36278;47.952;21.714;2022-11-20T13:38:43;17.30;;;12.03;;
43070;SDS011;36278;47.952;21.714;2022-11-20T13:41:09;16.73;;;12.63;;
43070;SDS011;36278;47.952;21.714;2022-11-20T13:43:54;18.60;;;13.23;;
43070;SDS011;36278;47.952;21.714;2022-11-20T13:46:34;17.00;;;13.00;;
43070;SDS011;36278;47.952;21.714;2022-11-20T13:49:14;21.13;;;14.20;;
43070;SDS011;36278;47.952;21.714;2022-11-20T13:51:45;19.27;;;14.50;;
43070;SDS011;36278;47.952;21.714;2022-11-20T13:54:19;24.77;;;16.57;;
43070;SDS011;36278;47.952;21.714;2022-11-20T13:57:25;23.20;;;15.80;;
43070;SDS011;36278;47.952;21.714;2022-11-20T14:02:40;20.97;;;16.23;;
43070;SDS011;36278;47.952;21.714;2022-11-20T14:05:27;22.33;;;16.40;;
43070;SDS011;36278;47.952;21.714;2022-11-20T14:07:57;25.80;;;16.43;;
43070;SDS011;36278;47.952;21.714;2022-11-20T14:10:28;20.40;;;15.47;;
43070;SDS011;36278;47.952;21.714;2022-11-20T14:12:54;24.00;;;16.77;;
43070;SDS011;36278;47.952;21.714;2022-11-20T14:15:31;23.27;;;17.27;;
43070;SDS011;36278;47.952;21.714;2022-11-20T14:17:58;22.57;;;15.83;;
43070;SDS011;36278;47.952;21.714;2022-11-20T14:20:26;22.53;;;16.73;;
43070;SDS011;36278;47.952;21.714;2022-11-20T14:22:53;20.27;;;15.13;;
43070;SDS011;36278;47.952;21.714;2022-11-20T14:25:21;23.67;;;15.60;;
43070;SDS011;36278;47.952;21.714;2022-11-20T14:27:50;28.30;;;18.87;;
43070;SDS011;36278;47.952;21.714;2022-11-20T14:30:19;21.97;;;16.53;;
43070;SDS011;36278;47.952;21.714;2022-11-20T14:32:49;20.63;;;16.03;;
43070;SDS011;36278;47.952;21.714;2022-11-20T14:35:24;22.50;;;16.37;;
43070;SDS011;36278;47.952;21.714;2022-11-20T14:37:51;23.60;;;17.50;;
43070;SDS011;36278;47.952;21.714;2022-11-20T14:40:30;23.73;;;17.27;;
43070;SDS011;36278;47.952;21.714;2022-11-20T14:43:00;27.47;;;18.43;;
43070;SDS011;36278;47.952;21.714;2022-11-20T14:45:26;26.33;;;18.73;;
43070;SDS011;36278;47.952;21.714;2022-11-20T14:47:53;26.27;;;18.83;;
43070;SDS011;36278;47.952;21.714;2022-11-20T14:50:26;24.23;;;18.27;;
43070;SDS011;36278;47.952;21.714;2022-11-20T14:52:54;28.80;;;20.80;;
43070;SDS011;36278;47.952;21.714;2022-11-20T14:55:28;32.03;;;22.50;;
43070;SDS011;36278;47.952;21.714;2022-11-20T14:57:54;37.30;;;25.75;;
43070;SDS011;36278;47.952;21.714;2022-11-20T15:00:21;33.73;;;22.73;;
43070;SDS011;36278;47.952;21.714;2022-11-20T15:02:49;28.17;;;20.83;;
43070;SDS011;36278;47.952;21.714;2022-11-20T15:05:16;30.83;;;22.17;;
43070;SDS011;36278;47.952;21.714;2022-11-20T15:07:44;32.10;;;22.30;;
43070;SDS011;36278;47.952;21.714;2022-11-20T15:12:59;26.67;;;19.07;;
43070;SDS011;36278;47.952;21.714;2022-11-20T15:18:01;33.30;;;23.77;;
43070;SDS011;36278;47.952;21.714;2022-11-20T15:20:28;29.57;;;20.00;;
43070;SDS011;36278;47.952;21.714;2022-11-20T15:22:57;27.33;;;17.80;;
43070;SDS011;36278;47.952;21.714;2022-11-20T15:25:23;23.63;;;16.43;;
43070;SDS011;36278;47.952;21.714;2022-11-20T15:27:51;23.33;;;16.27;;
43070;SDS011;36278;47.952;21.714;2022-11-20T15:30:20;21.80;;;15.63;;
43070;SDS011;36278;47.952;21.714;2022-11-20T15:32:46;25.50;;;17.10;;
43070;SDS011;36278;47.952;21.714;2022-11-20T15:35:12;23.00;;;16.53;;
43070;SDS011;36278;47.952;21.714;2022-11-20T15:37:38;26.00;;;17.70;;
43070;SDS011;36278;47.952;21.714;2022-11-20T15:40:04;29.10;;;18.93;;
43070;SDS011;36278;47.952;21.714;2022-11-20T15:42:31;29.37;;;19.67;;
43070;SDS011;36278;47.952;21.714;2022-11-20T15:44:56;30.17;;;19.63;;
43070;SDS011;36278;47.952;21.714;2022-11-20T15:47:25;28.37;;;19.83;;
43070;SDS011;36278;47.952;21.714;2022-11-20T15:49:54;30.43;;;21.30;;
43070;SDS011;36278;47.952;21.714;2022-11-20T15:52:19;29.30;;;20.33;;
43070;SDS011;36278;47.952;21.714;2022-11-20T15:54:45;28.60;;;20.10;;
43070;SDS011;36278;47.952;21.714;2022-11-20T15:57:11;30.83;;;20.27;;
43070;SDS011;36278;47.952;21.714;2022-11-20T15:59:38;30.40;;;20.03;;